Terminal Aerodrome Forecast
Issued by NWS Jacksonville, FL

Home | Current Version | Previous Version | Text Only | Print | Product List | Glossary On
Versions: 1 2 3 4 5 6 7 8 9 10 11 12 13 14 15
000
FTUS42 KJAX 221712 AAD
TAFJAX
TAF AMD
KJAX 221712Z 2217/2312 05013G20KT P6SM VCSH BKN030 BKN060 BKN250
     FM222100 07014G20KT P6SM VCSH SCT025 BKN035 BKN060=

USA.gov is the U.S. government's official web portal to all federal, state and local government web resources and services.